Aérodrome :
LOGIN :

S'inscrire | Disclaimer

   EN    FR    IT 

 










Légende :    VFR   VFR Marginal   IFR   IFR Intensif   IFR Très Intensif
Visi : 
Plafond : 
>= 8 km
>= 3000ft
5 à 8 km
1000 à 3000 ft
1500m à 5 km
500 à 1000 ft
800 à 1500m
200 à 500 ft
< 800m
< 200 ft
Symboles :   Orages  Brouillard  Fortes neiges  Fortes précipitations  Vent > 20 kt
SIGMETs :   Divers  Orages  Givrage  Turbulence  Onde Orograph.  Cendres Volcan.






- Altitude de l'aérodrome : 74 ft
- Code IATA : LRH


LFBH - La Rochelle Ile de Ré

DERNIER METAR :
  • 161130Z AUTO 05012KT 020V080 CAVOK 13/M03 Q1025 NOSIG

METARs EXPIRÉS :
  • 161100Z AUTO 04012KT 010V080 CAVOK 12/M03 Q1025 NOSIG
  • 161030Z AUTO 04013KT CAVOK 12/M02 Q1026 NOSIG
  • 161000Z AUTO 05014KT CAVOK 11/M01 Q1026 NOSIG
  • 160930Z AUTO 05011KT CAVOK 11/M00 Q1026 NOSIG
  • 160900Z AUTO 03010KT CAVOK 10/01 Q1026 NOSIG

TAF TAF LFBH
Valide du 16 à 12h jusqu'au 17 à 12h UTC


161100Z 1612/1712 03010KT CAVOK
TEMPO 1612/1618 03012G22KT
ATIS : +33 5 46 00 13 92



MET'MAP, la Météo Aéronautique d'un coup d'oeil ! - Copyright ORBIFLY Décembre 2007 - Disclaimer

ORBIFLY MET'MAP TEAM :

Programmation & Développement : Alexandra Zaïnal
Sur une idée originale de : Baudouin d'Aumeries
Assistance à la programmation : Marc-Olivier Méhu
Soutien technique & logistique : Manuel Goepfert

Contact : metmap@orbifly.com




SOURCES & CREDITS :

   NOAA